createdAt,value
2023-03-14T00:00:41.204Z,13.36
2023-03-14T00:03:44.401Z,13.28
2023-03-14T00:06:47.853Z,13.35
2023-03-14T00:09:52.402Z,13.30
2023-03-14T00:12:55.268Z,13.14
2023-03-14T00:16:04.244Z,12.99
2023-03-14T00:19:07.130Z,13.06
2023-03-14T00:22:10.093Z,13.15
2023-03-14T00:25:14.853Z,13.09
2023-03-14T00:28:17.580Z,12.95
2023-03-14T00:31:20.823Z,12.98
2023-03-14T00:34:23.798Z,13.03
2023-03-14T00:37:26.507Z,13.14
2023-03-14T00:40:30.705Z,13.00
2023-03-14T00:43:33.728Z,12.84
2023-03-14T00:46:39.002Z,12.84
2023-03-14T00:49:44.462Z,12.86
2023-03-14T00:52:48.697Z,12.78
2023-03-14T00:55:53.253Z,12.72
2023-03-14T00:58:56.781Z,12.93
2023-03-14T01:01:59.665Z,12.78
2023-03-14T01:05:02.910Z,12.84
2023-03-14T01:08:07.657Z,12.83
2023-03-14T01:11:14.935Z,12.63
2023-03-14T01:14:17.644Z,12.62
2023-03-14T01:17:20.541Z,12.50
2023-03-14T01:20:25.616Z,12.53
2023-03-14T01:23:28.341Z,12.52
2023-03-14T01:26:35.774Z,12.60
2023-03-14T01:29:38.566Z,12.48
2023-03-14T01:32:42.743Z,12.52
2023-03-14T01:35:45.742Z,12.56
2023-03-14T01:38:48.625Z,12.61
2023-03-14T01:41:52.876Z,12.43
2023-03-14T01:44:57.132Z,12.43
2023-03-14T01:48:01.680Z,12.48
2023-03-14T01:51:07.672Z,12.40
2023-03-14T01:54:16.095Z,12.42
2023-03-14T01:57:26.306Z,12.43
2023-03-14T02:00:30.241Z,12.53
2023-03-14T02:03:40.579Z,12.40
2023-03-14T02:06:51.833Z,12.43
2023-03-14T02:09:56.667Z,12.47
2023-03-14T02:13:04.902Z,12.44
2023-03-14T02:16:08.877Z,12.62
2023-03-14T02:19:13.571Z,12.43
2023-03-14T02:22:18.466Z,12.34
2023-03-14T02:25:30.224Z,12.56
2023-03-14T02:28:34.382Z,12.49
2023-03-14T02:31:37.778Z,12.47
2023-03-14T02:34:42.223Z,12.47
2023-03-14T02:37:49.852Z,12.45
2023-03-14T02:40:53.181Z,12.57
2023-03-14T02:43:57.211Z,12.45
2023-03-14T02:47:00.170Z,12.47
2023-03-14T02:50:06.509Z,12.52
2023-03-14T02:53:09.265Z,12.57
2023-03-14T02:56:12.595Z,12.55
2023-03-14T02:59:17.028Z,12.63
2023-03-14T03:02:20.469Z,12.58
2023-03-14T03:05:23.231Z,12.57
2023-03-14T03:08:30.580Z,12.42
2023-03-14T03:11:33.660Z,12.43
2023-03-14T03:14:41.896Z,12.43
2023-03-14T03:17:44.670Z,12.49
2023-03-14T03:20:47.987Z,12.23
2023-03-14T03:23:51.762Z,12.22
2023-03-14T03:26:56.041Z,12.18
2023-03-14T03:30:00.760Z,12.25
2023-03-14T03:33:03.537Z,12.15
2023-03-14T03:36:07.696Z,12.08
2023-03-14T03:39:11.438Z,11.96
2023-03-14T03:42:16.543Z,11.95
2023-03-14T03:45:21.270Z,12.04
2023-03-14T03:48:23.996Z,12.07
2023-03-14T03:51:28.173Z,12.07
2023-03-14T03:54:33.362Z,12.12
2023-03-14T03:57:37.142Z,12.03
2023-03-14T04:00:41.828Z,11.89
2023-03-14T04:03:45.136Z,12.03
2023-03-14T04:06:48.350Z,11.95
2023-03-14T04:09:51.076Z,12.04
2023-03-14T04:12:56.108Z,11.87
2023-03-14T04:16:01.177Z,12.01
2023-03-14T04:19:05.271Z,11.98
2023-03-14T04:22:07.965Z,11.95
2023-03-14T04:25:12.335Z,11.97
2023-03-14T04:28:16.126Z,11.94
2023-03-14T04:31:23.184Z,11.97
2023-03-14T04:34:27.440Z,11.87
2023-03-14T04:37:31.281Z,11.97
2023-03-14T04:40:34.560Z,11.99
2023-03-14T04:43:37.434Z,11.96
2023-03-14T04:46:42.043Z,12.12
2023-03-14T04:49:45.270Z,12.00
2023-03-14T04:52:48.041Z,11.92
2023-03-14T04:55:54.114Z,11.81
2023-03-14T04:58:57.365Z,11.84
2023-03-14T05:02:05.127Z,11.85
2023-03-14T05:05:08.907Z,11.90
2023-03-14T05:08:16.280Z,11.86
2023-03-14T05:11:19.537Z,11.78
2023-03-14T05:14:22.386Z,11.84
2023-03-14T05:17:26.929Z,11.82
2023-03-14T05:20:30.416Z,11.92
2023-03-14T05:23:33.367Z,12.02
2023-03-14T05:26:37.517Z,12.18
2023-03-14T05:29:41.552Z,12.21
2023-03-14T05:32:46.475Z,11.85
2023-03-14T05:35:49.528Z,11.84
2023-03-14T05:38:52.779Z,11.89
2023-03-14T05:41:57.334Z,11.88
2023-03-14T05:45:01.229Z,11.96
2023-03-14T05:48:06.129Z,11.99
2023-03-14T05:51:09.343Z,12.03
2023-03-14T05:54:13.046Z,12.07
2023-03-14T05:57:15.997Z,12.22
2023-03-14T06:00:22.282Z,12.20
2023-03-14T06:03:31.730Z,12.21
2023-03-14T06:06:37.778Z,12.02
2023-03-14T06:09:41.537Z,12.11
2023-03-14T06:12:44.907Z,12.19
2023-03-14T06:15:48.897Z,12.28
2023-03-14T06:18:53.648Z,12.19
2023-03-14T06:21:56.414Z,12.21
2023-03-14T06:24:59.214Z,12.14
2023-03-14T06:28:02.671Z,12.17
2023-03-14T06:31:06.375Z,12.15
2023-03-14T06:34:11.192Z,12.53
2023-03-14T06:37:14.260Z,12.54
2023-03-14T06:40:22.224Z,12.57
2023-03-14T06:43:25.664Z,12.50
2023-03-14T06:46:30.321Z,12.60
2023-03-14T06:49:34.832Z,12.48
2023-03-14T06:52:38.894Z,12.48
2023-03-14T06:55:41.968Z,12.65
2023-03-14T06:58:47.261Z,12.80
2023-03-14T07:01:52.048Z,13.02
2023-03-14T07:04:56.563Z,13.12
2023-03-14T07:07:59.738Z,13.34
2023-03-14T07:11:02.817Z,13.30
2023-03-14T07:14:06.930Z,13.37
2023-03-14T07:17:12.079Z,13.14
2023-03-14T07:20:16.436Z,12.94
2023-03-14T07:23:19.639Z,13.15
2023-03-14T07:26:22.481Z,13.26
2023-03-14T07:29:25.626Z,13.77
2023-03-14T07:32:29.853Z,13.87
2023-03-14T07:35:34.625Z,13.73
2023-03-14T07:38:37.464Z,13.79
2023-03-14T07:41:40.317Z,14.21
2023-03-14T07:44:43.500Z,14.65
2023-03-14T07:47:46.592Z,15.02
2023-03-14T07:50:52.721Z,15.33
2023-03-14T07:53:55.939Z,15.47
2023-03-14T07:57:01.575Z,14.98
2023-03-14T08:00:06.418Z,15.59
2023-03-14T08:03:09.182Z,15.91
2023-03-14T08:06:13.298Z,15.57
2023-03-14T08:09:17.151Z,15.52
2023-03-14T08:12:20.231Z,15.18
2023-03-14T08:15:23.634Z,15.04
2023-03-14T08:18:26.956Z,15.01
2023-03-14T08:21:32.065Z,14.57
2023-03-14T08:24:35.137Z,14.38
2023-03-14T08:27:39.617Z,14.28
2023-03-14T08:30:46.806Z,14.29
2023-03-14T08:33:53.010Z,14.05
2023-03-14T08:36:58.096Z,14.04
2023-03-14T08:40:01.626Z,13.93
2023-03-14T08:43:05.200Z,13.91
2023-03-14T08:46:08.589Z,14.07
2023-03-14T08:49:11.493Z,14.16
2023-03-14T08:52:17.138Z,14.12
2023-03-14T08:55:20.296Z,14.29
2023-03-14T08:58:24.595Z,14.43
2023-03-14T09:01:27.769Z,14.27
2023-03-14T09:04:30.886Z,14.48
2023-03-14T09:07:35.442Z,14.67
2023-03-14T09:10:39.498Z,14.62
2023-03-14T09:13:43.411Z,14.82
2023-03-14T09:16:46.174Z,14.89
2023-03-14T09:19:48.959Z,15.11
2023-03-14T09:22:53.374Z,15.31
2023-03-14T09:25:57.176Z,15.69
2023-03-14T09:29:00.107Z,16.02
2023-03-14T09:32:03.013Z,16.18
2023-03-14T09:35:07.677Z,16.35
2023-03-14T09:38:11.915Z,16.15
2023-03-14T09:41:18.564Z,15.91
2023-03-14T09:44:27.752Z,15.66
2023-03-14T09:47:31.405Z,15.50
2023-03-14T09:50:40.609Z,15.51
2023-03-14T09:53:47.045Z,15.29
2023-03-14T09:56:50.036Z,15.11
2023-03-14T09:59:56.891Z,15.20
2023-03-14T10:03:26.834Z,15.50
2023-03-14T10:06:31.972Z,15.46
2023-03-14T10:09:37.490Z,15.54
2023-03-14T10:12:40.975Z,15.42
2023-03-14T10:15:48.978Z,15.19
2023-03-14T10:18:52.083Z,15.16
2023-03-14T10:21:56.675Z,15.01
2023-03-14T10:25:06.035Z,14.88
2023-03-14T10:28:25.698Z,15.01
2023-03-14T10:31:29.084Z,14.89
2023-03-14T10:34:39.413Z,14.81
2023-03-14T10:37:52.436Z,14.91
2023-03-14T10:40:59.643Z,15.04
2023-03-14T10:44:03.968Z,14.93
2023-03-14T10:47:08.083Z,14.95
2023-03-14T10:50:26.679Z,15.05
2023-03-14T10:53:35.878Z,15.02
2023-03-14T10:56:40.134Z,14.82
2023-03-14T10:59:45.817Z,14.78
2023-03-14T11:03:07.970Z,14.95
2023-03-14T11:06:16.895Z,14.85
2023-03-14T11:09:26.499Z,14.82
2023-03-14T11:12:44.146Z,14.90
2023-03-14T11:15:56.966Z,14.67
2023-03-14T11:19:11.909Z,14.69
2023-03-14T11:22:23.727Z,14.59
2023-03-14T11:25:32.946Z,14.53
2023-03-14T11:28:41.235Z,14.40
2023-03-14T11:31:46.752Z,14.68
2023-03-14T11:34:55.448Z,14.49
2023-03-14T11:38:05.915Z,14.62
2023-03-14T11:41:14.839Z,14.75
2023-03-14T11:44:22.365Z,14.78
2023-03-14T11:47:28.441Z,14.67
2023-03-14T11:50:32.632Z,14.88
2023-03-14T11:53:58.794Z,14.73
2023-03-14T11:57:05.031Z,14.65
2023-03-14T12:00:19.431Z,14.63
2023-03-14T12:03:33.067Z,14.50
2023-03-14T12:09:47.014Z,14.08
2023-03-14T12:12:50.461Z,14.06
2023-03-14T12:15:59.550Z,14.17
2023-03-14T12:19:30.420Z,14.36
2023-03-14T12:22:38.240Z,14.68
2023-03-14T12:25:45.273Z,15.05
2023-03-14T12:28:53.342Z,15.10
2023-03-14T12:32:23.028Z,15.38
2023-03-14T12:35:41.787Z,15.49
2023-03-14T12:39:13.207Z,15.27
2023-03-14T12:42:27.376Z,15.44
2023-03-14T12:45:33.975Z,15.09
2023-03-14T12:48:40.420Z,14.97
2023-03-14T12:51:45.033Z,14.95
2023-03-14T12:54:54.863Z,14.86
2023-03-14T12:58:05.365Z,14.93
2023-03-14T13:01:17.794Z,14.70
2023-03-14T13:04:38.808Z,14.87
2023-03-14T13:08:06.450Z,14.83
2023-03-14T13:11:14.422Z,14.97
2023-03-14T13:14:17.493Z,15.10
2023-03-14T13:17:34.824Z,15.61
2023-03-14T13:20:44.007Z,15.89
2023-03-14T13:23:58.366Z,16.11
2023-03-14T13:27:06.287Z,16.16
2023-03-14T13:30:22.152Z,16.22
2023-03-14T13:33:25.748Z,16.01
2023-03-14T13:36:30.587Z,15.90
2023-03-14T13:39:33.917Z,15.83
2023-03-14T13:42:36.775Z,15.60
2023-03-14T13:45:52.714Z,15.47
2023-03-14T13:48:58.624Z,15.45
2023-03-14T13:52:03.013Z,15.63
2023-03-14T13:55:08.694Z,15.58
2023-03-14T13:58:22.672Z,15.70
2023-03-14T14:01:29.278Z,15.91
2023-03-14T14:04:36.500Z,15.89
2023-03-14T14:07:41.186Z,15.95
2023-03-14T14:10:43.940Z,15.58
2023-03-14T14:13:47.786Z,15.65
2023-03-14T14:16:53.570Z,15.39
2023-03-14T14:19:57.457Z,15.35
2023-03-14T14:23:04.374Z,15.34
2023-03-14T14:26:09.280Z,15.28
2023-03-14T14:29:27.321Z,15.39
2023-03-14T14:32:37.767Z,15.29
2023-03-14T14:35:41.466Z,14.99
2023-03-14T14:38:51.704Z,14.63
2023-03-14T14:41:55.473Z,14.19
2023-03-14T14:45:00.686Z,13.75
2023-03-14T14:48:09.390Z,13.20
2023-03-14T14:51:13.303Z,13.12
2023-03-14T14:54:19.529Z,12.98
2023-03-14T14:57:25.244Z,12.99
2023-03-14T15:00:30.973Z,12.86
2023-03-14T15:03:35.664Z,12.83
2023-03-14T15:06:39.084Z,11.96
2023-03-14T15:09:44.536Z,11.00
2023-03-14T15:12:48.285Z,10.15
2023-03-14T15:15:56.918Z,9.49
2023-03-14T15:19:03.266Z,8.97
2023-03-14T15:22:14.411Z,8.50
2023-03-14T15:25:43.628Z,8.60
2023-03-14T15:28:42.171Z,8.37
2023-03-14T15:31:45.654Z,8.12
2023-03-14T15:34:48.416Z,7.81
2023-03-14T15:37:51.490Z,7.61
2023-03-14T15:40:55.834Z,7.32
2023-03-14T15:43:58.579Z,7.37
2023-03-14T15:47:01.695Z,6.87
2023-03-14T15:50:04.924Z,6.66
2023-03-14T15:53:08.028Z,6.45
2023-03-14T15:56:15.892Z,6.15
2023-03-14T15:59:18.950Z,5.87
2023-03-14T16:02:22.208Z,5.87
2023-03-14T16:05:25.091Z,5.65
2023-03-14T16:08:29.850Z,5.44
2023-03-14T16:11:34.059Z,5.25
2023-03-14T16:14:36.822Z,5.09
2023-03-14T16:17:41.141Z,5.07
2023-03-14T16:20:48.121Z,4.59
2023-03-14T16:23:51.412Z,4.17
2023-03-14T16:26:55.630Z,4.27
2023-03-14T16:29:58.996Z,4.21
2023-03-14T16:33:02.744Z,4.03
2023-03-14T16:36:09.225Z,3.95
2023-03-14T16:39:12.155Z,4.19
2023-03-14T16:42:16.424Z,3.96
2023-03-14T16:45:19.135Z,3.90
2023-03-14T16:48:22.285Z,3.86
2023-03-14T16:51:25.611Z,3.77
2023-03-14T16:54:28.471Z,3.99
2023-03-14T16:57:32.733Z,4.04
2023-03-14T17:00:35.585Z,3.90
2023-03-14T17:03:38.750Z,3.79
2023-03-14T17:06:41.954Z,3.78
2023-03-14T17:09:44.693Z,3.62
2023-03-14T17:12:48.906Z,3.65
2023-03-14T17:15:54.095Z,3.51
2023-03-14T17:18:57.601Z,3.63
2023-03-14T17:22:21.150Z,3.71
2023-03-14T17:25:23.401Z,3.57
2023-03-14T17:28:29.160Z,3.65
2023-03-14T17:31:32.218Z,3.81
2023-03-14T17:34:35.054Z,3.81
2023-03-14T17:37:38.107Z,3.81
2023-03-14T17:40:40.953Z,3.74
2023-03-14T17:43:45.936Z,3.90
2023-03-14T17:46:48.906Z,4.06
2023-03-14T17:49:51.653Z,4.07
2023-03-14T17:52:54.730Z,4.17
2023-03-14T17:55:57.970Z,4.28
2023-03-14T17:59:02.856Z,4.08
2023-03-14T18:02:06.627Z,4.05
2023-03-14T18:05:10.601Z,4.00
2023-03-14T18:08:16.440Z,4.21
2023-03-14T18:11:19.526Z,4.23
2023-03-14T18:14:23.754Z,4.44
2023-03-14T18:17:26.461Z,4.30
2023-03-14T18:20:30.049Z,4.43
2023-03-14T18:23:32.728Z,4.37
2023-03-14T18:26:35.493Z,4.38
2023-03-14T18:29:39.915Z,4.51
2023-03-14T18:32:42.936Z,4.56
2023-03-14T18:35:46.193Z,4.34
2023-03-14T18:38:50.661Z,4.46
2023-03-14T18:41:53.412Z,4.58
2023-03-14T18:44:57.589Z,4.63
2023-03-14T18:48:00.265Z,4.48
2023-03-14T18:51:04.054Z,4.52
2023-03-14T18:54:10.626Z,4.44
2023-03-14T18:57:13.963Z,4.52
2023-03-14T19:00:20.435Z,4.53
2023-03-14T19:03:25.882Z,4.60
2023-03-14T19:06:30.364Z,4.58
2023-03-14T19:09:33.696Z,4.50
2023-03-14T19:12:36.582Z,4.53
2023-03-14T19:15:41.405Z,4.57
2023-03-14T19:18:45.027Z,4.54
2023-03-14T19:21:48.208Z,4.58
2023-03-14T19:24:53.064Z,4.69
2023-03-14T19:27:56.268Z,4.76
2023-03-14T19:31:02.843Z,4.76
2023-03-14T19:34:06.142Z,4.82
2023-03-14T19:37:09.076Z,4.68
2023-03-14T19:40:13.999Z,4.62
2023-03-14T19:43:17.129Z,4.41
2023-03-14T19:46:22.485Z,4.40
2023-03-14T19:49:25.548Z,4.43
2023-03-14T19:52:28.694Z,4.42
2023-03-14T19:55:34.694Z,4.27
2023-03-14T19:58:39.223Z,4.28
2023-03-14T20:01:47.304Z,4.06
2023-03-14T20:04:54.410Z,3.95
2023-03-14T20:07:57.376Z,4.01
2023-03-14T20:11:00.384Z,4.09
2023-03-14T20:14:03.191Z,4.14
2023-03-14T20:17:08.166Z,4.03
2023-03-14T20:20:12.291Z,4.02
2023-03-14T20:23:15.653Z,3.93
2023-03-14T20:26:18.568Z,3.93
2023-03-14T20:29:21.400Z,3.93
2023-03-14T20:32:26.006Z,3.92
2023-03-14T20:35:28.813Z,3.89
2023-03-14T20:38:32.112Z,3.94
2023-03-14T20:41:41.764Z,3.84
2023-03-14T20:44:44.594Z,3.80
2023-03-14T20:47:50.946Z,3.88
2023-03-14T20:50:54.345Z,4.13
2023-03-14T20:53:57.053Z,4.27
2023-03-14T20:56:59.950Z,4.76
2023-03-14T21:00:06.727Z,4.43
2023-03-14T21:03:10.790Z,4.14
2023-03-14T21:06:14.140Z,4.12
2023-03-14T21:09:17.086Z,4.23
2023-03-14T21:15:41.207Z,4.06
2023-03-14T21:18:45.344Z,4.02
2023-03-14T21:21:48.534Z,3.84
2023-03-14T21:24:51.455Z,3.90
2023-03-14T21:27:54.469Z,4.01
2023-03-14T21:30:57.681Z,4.04
2023-03-14T21:34:02.256Z,4.17
2023-03-14T21:37:06.247Z,4.12
2023-03-14T21:40:10.163Z,4.15
2023-03-14T21:43:13.749Z,4.02
2023-03-14T21:46:16.966Z,3.83
2023-03-14T21:49:21.276Z,3.61
2023-03-14T21:52:24.190Z,3.72
2023-03-14T21:55:27.253Z,3.77
2023-03-14T21:58:30.232Z,3.65
2023-03-14T22:01:33.287Z,3.78
2023-03-14T22:04:37.784Z,3.94
2023-03-14T22:07:41.089Z,3.89
2023-03-14T22:10:46.110Z,3.57
2023-03-14T22:13:49.077Z,3.61
2023-03-14T22:16:52.235Z,3.72
2023-03-14T22:19:56.815Z,3.60
2023-03-14T22:22:59.925Z,3.71
2023-03-14T22:26:03.315Z,3.67
2023-03-14T22:29:07.291Z,3.70
2023-03-14T22:32:11.866Z,3.74
2023-03-14T22:35:16.152Z,3.64
2023-03-14T22:38:19.328Z,3.57
2023-03-14T22:41:22.512Z,3.51
2023-03-14T22:44:25.230Z,3.57
2023-03-14T22:47:31.254Z,3.43
2023-03-14T22:50:35.803Z,3.38
2023-03-14T22:53:40.201Z,3.36
2023-03-14T22:56:45.640Z,3.37
2023-03-14T22:59:48.500Z,3.61
2023-03-14T23:02:51.249Z,3.64
2023-03-14T23:05:55.748Z,3.66
2023-03-14T23:08:58.748Z,3.62
2023-03-14T23:12:01.699Z,3.72
2023-03-14T23:15:06.196Z,3.70
2023-03-14T23:18:09.108Z,3.93
2023-03-14T23:21:16.495Z,3.82
2023-03-14T23:24:19.508Z,3.95
2023-03-14T23:27:22.556Z,3.98
2023-03-14T23:30:25.406Z,3.78
2023-03-14T23:33:30.003Z,3.62
2023-03-14T23:36:37.483Z,3.59
2023-03-14T23:39:40.223Z,3.51
2023-03-14T23:42:43.077Z,3.56
2023-03-14T23:45:50.102Z,3.41
2023-03-14T23:48:55.107Z,3.44
2023-03-14T23:51:59.177Z,3.68
2023-03-14T23:55:02.083Z,3.61
2023-03-14T23:58:05.011Z,3.37
